createdAt,value
2018-12-08T00:02:00.841Z,99957
2018-12-08T00:04:29.672Z,99944
2018-12-08T00:06:58.497Z,99960
2018-12-08T00:09:27.328Z,99959
2018-12-08T00:11:56.163Z,99972
2018-12-08T00:14:25.053Z,99969
2018-12-08T00:16:54.563Z,99975
2018-12-08T00:19:23.386Z,99975
2018-12-08T00:21:52.211Z,99977
2018-12-08T00:24:21.047Z,99974
2018-12-08T00:26:49.864Z,99972
2018-12-08T00:29:18.703Z,99968
2018-12-08T00:31:47.538Z,99974
2018-12-08T00:34:16.379Z,99979
2018-12-08T00:36:45.249Z,99991
2018-12-08T00:39:14.672Z,99994
2018-12-08T00:41:43.630Z,100009
2018-12-08T00:44:12.379Z,100011
2018-12-08T00:46:41.232Z,100005
2018-12-08T00:49:10.068Z,100003
2018-12-08T00:51:38.900Z,100012
2018-12-08T00:54:08.485Z,100010
2018-12-08T00:56:37.324Z,100004
2018-12-08T00:59:06.166Z,100009
2018-12-08T01:01:35.008Z,100006
2018-12-08T01:04:03.859Z,100006
2018-12-08T01:06:32.696Z,100004
2018-12-08T01:09:01.538Z,99994
2018-12-08T01:11:30.372Z,99980
2018-12-08T01:13:59.206Z,99992
2018-12-08T01:16:28.062Z,99998
2018-12-08T01:18:56.909Z,100008
2018-12-08T01:21:26.504Z,100006
2018-12-08T01:23:55.337Z,100008
2018-12-08T01:26:24.182Z,100012
2018-12-08T01:28:53.754Z,100010
2018-12-08T01:31:22.596Z,100023
2018-12-08T01:33:51.429Z,100017
2018-12-08T01:36:20.279Z,100018
2018-12-08T01:38:49.112Z,100017
2018-12-08T01:41:17.955Z,100019
2018-12-08T01:43:46.786Z,100031
2018-12-08T01:46:15.618Z,100024
2018-12-08T01:48:44.459Z,100022
2018-12-08T01:51:13.292Z,100025
2018-12-08T01:53:42.876Z,100028
2018-12-08T01:56:11.712Z,100018
2018-12-08T01:58:40.545Z,100027
2018-12-08T02:01:09.427Z,100028
2018-12-08T02:03:38.262Z,100029
2018-12-08T02:06:07.094Z,100023
2018-12-08T02:08:35.934Z,100030
2018-12-08T02:11:04.831Z,100035
2018-12-08T02:13:34.224Z,100033
2018-12-08T02:16:03.805Z,100029
2018-12-08T02:18:32.653Z,100024
2018-12-08T02:21:01.501Z,100016
2018-12-08T02:23:30.330Z,100008
2018-12-08T02:25:59.181Z,100010
2018-12-08T02:28:28.021Z,100015
2018-12-08T02:30:56.857Z,100008
2018-12-08T02:33:25.706Z,100012
2018-12-08T02:35:54.596Z,100020
2018-12-08T02:38:23.443Z,100026
2018-12-08T02:40:52.250Z,100036
2018-12-08T02:43:21.100Z,100037
2018-12-08T02:45:49.946Z,100040
2018-12-08T02:48:18.778Z,100044
2018-12-08T02:50:47.609Z,100053
2018-12-08T02:53:16.440Z,100048
2018-12-08T02:55:45.271Z,100062
2018-12-08T02:58:14.109Z,100058
2018-12-08T03:00:42.944Z,100068
2018-12-08T03:03:12.533Z,100056
2018-12-08T03:05:42.119Z,100069
2018-12-08T03:08:10.956Z,100060
2018-12-08T03:10:39.798Z,100061
2018-12-08T03:13:08.647Z,100069
2018-12-08T03:15:37.463Z,100076
2018-12-08T03:18:06.295Z,100076
2018-12-08T03:20:35.869Z,100074
2018-12-08T03:23:04.721Z,100067
2018-12-08T03:25:33.558Z,100068
2018-12-08T03:28:02.410Z,100060
2018-12-08T03:30:31.256Z,100069
2018-12-08T03:33:00.822Z,100074
2018-12-08T03:35:29.664Z,100066
2018-12-08T03:37:58.498Z,100066
2018-12-08T03:40:27.342Z,100085
2018-12-08T03:42:56.172Z,100082
2018-12-08T03:45:25.010Z,100074
2018-12-08T03:47:54.580Z,100069
2018-12-08T03:50:23.424Z,100062
2018-12-08T03:52:52.284Z,100080
2018-12-08T03:55:21.120Z,100068
2018-12-08T03:57:49.956Z,100070
2018-12-08T04:00:19.554Z,100081
2018-12-08T04:02:48.554Z,100068
2018-12-08T04:05:17.390Z,100074
2018-12-08T04:07:46.237Z,100064
2018-12-08T04:10:15.821Z,100073
2018-12-08T04:12:44.666Z,100087
2018-12-08T04:15:13.507Z,100061
2018-12-08T04:17:42.350Z,100077
2018-12-08T04:20:11.185Z,100058
2018-12-08T04:22:40.038Z,100066
2018-12-08T04:25:08.863Z,100054
2018-12-08T04:27:37.708Z,100054
2018-12-08T04:30:06.544Z,100047
2018-12-08T04:32:35.398Z,100050
2018-12-08T04:35:04.341Z,100042
2018-12-08T04:37:33.087Z,100038
2018-12-08T04:40:01.925Z,100039
2018-12-08T04:42:31.500Z,100029
2018-12-08T04:45:00.351Z,100039
2018-12-08T04:47:29.190Z,100050
2018-12-08T04:49:58.048Z,100032
2018-12-08T04:52:26.899Z,100031
2018-12-08T04:54:55.739Z,100034
2018-12-08T04:57:24.565Z,100033
2018-12-08T04:59:54.152Z,100055
2018-12-08T05:02:23.766Z,100062
2018-12-08T05:04:53.347Z,100073
2018-12-08T05:07:22.204Z,100080
2018-12-08T05:09:51.044Z,100075
2018-12-08T05:12:19.908Z,100073
2018-12-08T05:14:48.738Z,100075
2018-12-08T05:17:17.583Z,100076
2018-12-08T05:19:46.427Z,100070
2018-12-08T05:22:15.264Z,100063
2018-12-08T05:24:44.089Z,100075
2018-12-08T05:27:12.920Z,100078
2018-12-08T05:29:41.754Z,100069
2018-12-08T05:32:10.596Z,100067
2018-12-08T05:34:39.429Z,100075
2018-12-08T05:37:08.298Z,100074
2018-12-08T05:39:37.130Z,100074
2018-12-08T05:42:05.961Z,100080
2018-12-08T05:44:34.839Z,100081
2018-12-08T05:47:03.678Z,100083
2018-12-08T05:49:32.520Z,100081
2018-12-08T05:52:01.353Z,100073
2018-12-08T05:54:30.187Z,100079
2018-12-08T05:56:59.025Z,100080
2018-12-08T05:59:27.863Z,100082
2018-12-08T06:01:56.698Z,100075
2018-12-08T06:04:25.548Z,100081
2018-12-08T06:06:54.385Z,100077
2018-12-08T06:09:23.220Z,100068
2018-12-08T06:11:52.085Z,100065
2018-12-08T06:14:20.937Z,100058
2018-12-08T06:16:49.770Z,100061
2018-12-08T06:19:18.626Z,100058
2018-12-08T06:21:47.470Z,100065
2018-12-08T06:24:16.296Z,100059
2018-12-08T06:26:45.131Z,100073
2018-12-08T06:29:13.965Z,100073
2018-12-08T06:31:42.799Z,100063
2018-12-08T06:34:11.653Z,100063
2018-12-08T06:36:40.487Z,100047
2018-12-08T06:39:09.333Z,100045
2018-12-08T06:41:38.169Z,100036
2018-12-08T06:44:07.018Z,100043
2018-12-08T06:46:35.894Z,100036
2018-12-08T06:49:04.696Z,100044
2018-12-08T06:51:33.540Z,100074
2018-12-08T06:54:02.382Z,100038
2018-12-08T06:56:31.232Z,100041
2018-12-08T06:59:00.068Z,100053
2018-12-08T07:01:29.652Z,100040
2018-12-08T07:03:58.501Z,100047
2018-12-08T07:06:27.336Z,100036
2018-12-08T07:08:56.178Z,100028
2018-12-08T07:11:25.018Z,100028
2018-12-08T07:13:54.587Z,100017
2018-12-08T07:16:23.446Z,100021
2018-12-08T07:18:52.276Z,100021
2018-12-08T07:21:21.107Z,100017
2018-12-08T07:23:49.952Z,100035
2018-12-08T07:26:18.797Z,100022
2018-12-08T07:28:47.633Z,100022
2018-12-08T07:31:16.499Z,100022
2018-12-08T07:33:45.329Z,100034
2018-12-08T07:36:14.174Z,100028
2018-12-08T07:38:43.026Z,100035
2018-12-08T07:41:12.603Z,100025
2018-12-08T07:43:41.462Z,100023
2018-12-08T07:46:10.297Z,100030
2018-12-08T07:48:39.141Z,100013
2018-12-08T07:51:07.989Z,100031
2018-12-08T07:53:37.579Z,100026
2018-12-08T07:56:06.435Z,100020
2018-12-08T07:58:35.275Z,100033
2018-12-08T08:01:04.876Z,100026
2018-12-08T08:03:33.731Z,100006
2018-12-08T08:06:02.569Z,100014
2018-12-08T08:08:31.411Z,100019
2018-12-08T08:11:00.296Z,100001
2018-12-08T08:13:29.100Z,100012
2018-12-08T08:15:57.977Z,100017
2018-12-08T08:18:26.820Z,100016
2018-12-08T08:20:55.681Z,100014
2018-12-08T08:23:24.511Z,100018
2018-12-08T08:25:53.426Z,100003
2018-12-08T08:28:22.263Z,100004
2018-12-08T08:30:51.117Z,99996
2018-12-08T08:33:20.003Z,99991
2018-12-08T08:35:48.838Z,100000
2018-12-08T08:38:17.665Z,99988
2018-12-08T08:40:46.507Z,99985
2018-12-08T08:43:15.356Z,99990
2018-12-08T08:45:44.193Z,99994
2018-12-08T08:48:13.776Z,99983
2018-12-08T08:50:42.626Z,99995
2018-12-08T08:53:11.450Z,99989
2018-12-08T08:55:40.304Z,99993
2018-12-08T08:58:09.150Z,99997
2018-12-08T09:00:38.001Z,99993
2018-12-08T09:03:06.869Z,99986
2018-12-08T09:05:35.675Z,99983
2018-12-08T09:08:04.514Z,99983
2018-12-08T09:10:33.368Z,99975
2018-12-08T09:13:02.234Z,99980
2018-12-08T09:15:31.093Z,99984
2018-12-08T09:17:59.955Z,99974
2018-12-08T09:20:29.546Z,99984
2018-12-08T09:22:58.409Z,99980
2018-12-08T09:25:27.223Z,99987
2018-12-08T09:27:56.066Z,99993
2018-12-08T09:30:24.904Z,99989
2018-12-08T09:32:53.772Z,99983
2018-12-08T09:35:22.619Z,99981
2018-12-08T09:37:51.583Z,99995
2018-12-08T09:40:20.414Z,99996
2018-12-08T09:42:49.266Z,99980
2018-12-08T09:45:18.105Z,99985
2018-12-08T09:47:46.963Z,99981
2018-12-08T09:50:16.544Z,99969
2018-12-08T09:52:45.384Z,99971
2018-12-08T09:55:14.215Z,99974
2018-12-08T09:57:43.053Z,99979
2018-12-08T10:00:11.888Z,99973
2018-12-08T10:02:40.733Z,99985
2018-12-08T10:05:09.628Z,99973
2018-12-08T10:07:38.441Z,99970
2018-12-08T10:10:07.308Z,99960
2018-12-08T10:12:36.147Z,99960
2018-12-08T10:15:05.031Z,99952
2018-12-08T10:17:33.847Z,99956
2018-12-08T10:20:02.696Z,99951
2018-12-08T10:22:31.521Z,99957
2018-12-08T10:25:01.143Z,99947
2018-12-08T10:27:29.955Z,99943
2018-12-08T10:29:58.794Z,99929
2018-12-08T10:32:27.733Z,99926
2018-12-08T10:34:56.618Z,99922
2018-12-08T10:37:25.428Z,99922
2018-12-08T10:39:54.275Z,99918
2018-12-08T10:42:23.123Z,99925
2018-12-08T10:44:51.966Z,99943
2018-12-08T10:47:20.807Z,99938
2018-12-08T10:49:49.676Z,99937
2018-12-08T10:52:18.508Z,99936
2018-12-08T10:54:48.092Z,99929
2018-12-08T10:57:16.932Z,99918
2018-12-08T10:59:45.803Z,99935
2018-12-08T11:02:16.496Z,99929
2018-12-08T11:04:45.372Z,99944
2018-12-08T11:07:14.175Z,99937
2018-12-08T11:09:43.022Z,99932
2018-12-08T11:12:11.851Z,99933
2018-12-08T11:14:40.704Z,99944
2018-12-08T11:17:09.587Z,99932
2018-12-08T11:19:38.397Z,99932
2018-12-08T11:22:07.266Z,99931
2018-12-08T11:24:36.100Z,99931
2018-12-08T11:27:04.984Z,99924
2018-12-08T11:29:33.778Z,99921
2018-12-08T11:32:02.626Z,99920
2018-12-08T11:34:31.466Z,99919
2018-12-08T11:37:00.319Z,99928
2018-12-08T11:39:29.176Z,99918
2018-12-08T11:41:58.008Z,99916
2018-12-08T11:44:26.849Z,99919
2018-12-08T11:46:55.696Z,99919
2018-12-08T11:49:24.540Z,99920
2018-12-08T11:51:53.744Z,99919
2018-12-08T11:54:22.445Z,99903
2018-12-08T11:56:51.292Z,99910
2018-12-08T11:59:20.865Z,99916
2018-12-08T12:01:49.700Z,99920
2018-12-08T12:04:18.543Z,99928
2018-12-08T12:06:47.389Z,99921
2018-12-08T12:09:16.297Z,99914
2018-12-08T12:11:45.133Z,99914
2018-12-08T12:14:13.976Z,99904
2018-12-08T12:16:42.839Z,99919
2018-12-08T12:19:11.684Z,99924
2018-12-08T12:21:40.509Z,99905
2018-12-08T12:24:09.364Z,99920
2018-12-08T12:26:38.212Z,99916
2018-12-08T12:29:07.099Z,99909
2018-12-08T12:31:35.928Z,99910
2018-12-08T12:34:04.757Z,99914
2018-12-08T12:36:33.587Z,99902
2018-12-08T12:39:02.431Z,99908
2018-12-08T12:41:31.287Z,99909
2018-12-08T12:44:00.114Z,99890
2018-12-08T12:46:28.949Z,99897
2018-12-08T12:48:57.792Z,99895
2018-12-08T12:51:26.609Z,99891
2018-12-08T12:53:55.450Z,99902
2018-12-08T12:56:24.279Z,99901
2018-12-08T12:58:53.113Z,99899
2018-12-08T13:01:22.546Z,99893
2018-12-08T13:03:51.480Z,99892
2018-12-08T13:06:20.311Z,99886
2018-12-08T13:08:49.934Z,99888
2018-12-08T13:11:18.800Z,99894
2018-12-08T13:13:47.604Z,99882
2018-12-08T13:16:17.179Z,99884
2018-12-08T13:18:46.022Z,99895
2018-12-08T13:21:14.867Z,99889
2018-12-08T13:23:43.749Z,99879
2018-12-08T13:26:12.551Z,99879
2018-12-08T13:28:41.423Z,99886
2018-12-08T13:31:10.345Z,99880
2018-12-08T13:33:39.142Z,99873
2018-12-08T13:36:07.994Z,99878
2018-12-08T13:38:36.829Z,99878
2018-12-08T13:41:05.666Z,99881
2018-12-08T13:43:34.497Z,99883
2018-12-08T13:46:03.336Z,99883
2018-12-08T13:48:32.237Z,99885
2018-12-08T13:51:01.050Z,99870
2018-12-08T13:53:36.713Z,99882
2018-12-08T13:56:00.262Z,99878
2018-12-08T13:58:29.847Z,99877
2018-12-08T14:00:58.699Z,99890
2018-12-08T14:03:27.528Z,99880
2018-12-08T14:05:56.374Z,99884
2018-12-08T14:08:25.219Z,99883
2018-12-08T14:10:54.057Z,99891
2018-12-08T14:13:22.886Z,99888
2018-12-08T14:15:51.719Z,99884
2018-12-08T14:18:20.555Z,99891
2018-12-08T14:20:49.391Z,99883
2018-12-08T14:23:18.325Z,99894
2018-12-08T14:25:47.076Z,99883
2018-12-08T14:28:15.909Z,99893
2018-12-08T14:30:44.815Z,99901
2018-12-08T14:33:15.313Z,99897
2018-12-08T14:35:42.418Z,99897
2018-12-08T14:38:11.266Z,99886
2018-12-08T14:40:40.123Z,99890
2018-12-08T14:43:08.986Z,99885
2018-12-08T14:45:37.822Z,99880
2018-12-08T14:48:06.661Z,99879
2018-12-08T14:50:36.238Z,99877
2018-12-08T14:53:05.865Z,99878
2018-12-08T14:55:34.701Z,99880
2018-12-08T14:58:03.956Z,99877
2018-12-08T15:00:32.396Z,99879
2018-12-08T15:03:01.234Z,99878
2018-12-08T15:05:30.110Z,99887
2018-12-08T15:07:59.689Z,99877
2018-12-08T15:10:28.541Z,99886
2018-12-08T15:12:57.392Z,99880
2018-12-08T15:15:26.238Z,99889
2018-12-08T15:17:55.114Z,99891
2018-12-08T15:20:23.934Z,99889
2018-12-08T15:22:52.778Z,99897
2018-12-08T15:25:21.630Z,99897
2018-12-08T15:27:50.473Z,99895
2018-12-08T15:30:19.313Z,99898
2018-12-08T15:32:48.886Z,99898
2018-12-08T15:35:17.735Z,99888
2018-12-08T15:37:46.564Z,99888
2018-12-08T15:40:15.391Z,99893
2018-12-08T15:42:44.988Z,99890
2018-12-08T15:45:13.822Z,99891
2018-12-08T15:47:42.663Z,99893
2018-12-08T15:50:11.493Z,99874
2018-12-08T15:52:40.333Z,99889
2018-12-08T15:55:09.179Z,99888
2018-12-08T15:57:38.013Z,99892
2018-12-08T16:00:06.855Z,99874
2018-12-08T16:02:35.706Z,99883
2018-12-08T16:05:04.586Z,99874
2018-12-08T16:07:33.380Z,99870
2018-12-08T16:10:02.219Z,99866
2018-12-08T16:12:31.048Z,99872
2018-12-08T16:14:59.909Z,99876
2018-12-08T16:17:28.751Z,99873
2018-12-08T16:19:58.336Z,99861
2018-12-08T16:22:27.186Z,99868
2018-12-08T16:24:56.015Z,99858
2018-12-08T16:27:24.846Z,99860
2018-12-08T16:29:53.677Z,99862
2018-12-08T16:32:23.237Z,99853
2018-12-08T16:34:52.085Z,99852
2018-12-08T16:37:22.675Z,99838
2018-12-08T16:39:51.556Z,99830
2018-12-08T16:42:21.098Z,99841
2018-12-08T16:44:49.930Z,99834
2018-12-08T16:47:18.771Z,99838
2018-12-08T16:49:47.638Z,99818
2018-12-08T16:52:16.457Z,99820
2018-12-08T16:54:45.272Z,99812
2018-12-08T16:57:14.846Z,99812
2018-12-08T16:59:43.678Z,99808
2018-12-08T17:02:12.513Z,99803
2018-12-08T17:04:41.350Z,99796
2018-12-08T17:07:10.199Z,99790
2018-12-08T17:09:39.035Z,99786
2018-12-08T17:12:07.915Z,99789
2018-12-08T17:14:36.735Z,99784
2018-12-08T17:17:05.569Z,99781
2018-12-08T17:19:34.423Z,99777
2018-12-08T17:22:03.264Z,99770
2018-12-08T17:24:32.126Z,99768
2018-12-08T17:27:00.988Z,99771
2018-12-08T17:29:30.537Z,99754
2018-12-08T17:31:59.419Z,99756
2018-12-08T17:34:28.227Z,99757
2018-12-08T17:36:57.804Z,99750
2018-12-08T17:39:26.662Z,99749
2018-12-08T17:41:55.526Z,99750
2018-12-08T17:44:24.344Z,99737
2018-12-08T17:46:53.195Z,99739
2018-12-08T17:49:22.768Z,99731
2018-12-08T17:51:51.796Z,99725
2018-12-08T17:54:20.595Z,99713
2018-12-08T17:56:49.428Z,99717
2018-12-08T17:59:18.263Z,99712
2018-12-08T18:01:47.105Z,99709
2018-12-08T18:04:15.941Z,99697
2018-12-08T18:06:45.520Z,99681
2018-12-08T18:09:14.345Z,99700
2018-12-08T18:11:43.222Z,99696
2018-12-08T18:14:12.991Z,99687
2018-12-08T18:16:40.927Z,99683
2018-12-08T18:19:09.781Z,99680
2018-12-08T18:21:39.491Z,99675
2018-12-08T18:24:08.207Z,99665
2018-12-08T18:26:37.059Z,99661
2018-12-08T18:29:06.636Z,99652
2018-12-08T18:31:35.529Z,99656
2018-12-08T18:34:04.329Z,99649
2018-12-08T18:36:33.169Z,99660
2018-12-08T18:39:02.018Z,99647
2018-12-08T18:41:30.877Z,99642
2018-12-08T18:43:59.729Z,99627
2018-12-08T18:46:28.575Z,99623
2018-12-08T18:48:57.418Z,99611
2018-12-08T18:51:26.265Z,99594
2018-12-08T18:53:55.095Z,99605
2018-12-08T18:56:24.004Z,99584
2018-12-08T18:58:52.776Z,99585
2018-12-08T19:01:21.629Z,99578
2018-12-08T19:03:51.202Z,99569
2018-12-08T19:06:20.092Z,99561
2018-12-08T19:08:48.940Z,99565
2018-12-08T19:11:17.774Z,99580
2018-12-08T19:13:46.631Z,99557
2018-12-08T19:16:15.479Z,99575
2018-12-08T19:18:44.406Z,99566
2018-12-08T19:21:13.956Z,99552
2018-12-08T19:23:43.860Z,99549
2018-12-08T19:26:11.636Z,99548
2018-12-08T19:28:40.468Z,99532
2018-12-08T19:31:09.335Z,99546
2018-12-08T19:33:38.219Z,99527
2018-12-08T19:36:07.031Z,99547
2018-12-08T19:38:36.650Z,99531
2018-12-08T19:41:05.515Z,99511
2018-12-08T19:43:34.429Z,99521
2018-12-08T19:46:03.281Z,99519
2018-12-08T19:48:32.130Z,99505
2018-12-08T19:51:00.975Z,99507
2018-12-08T19:53:29.833Z,99498
2018-12-08T19:55:58.683Z,99495
2018-12-08T19:58:27.527Z,99484
2018-12-08T20:00:56.400Z,99455
2018-12-08T20:03:25.292Z,99470
2018-12-08T20:05:54.873Z,99465
2018-12-08T20:08:23.712Z,99467
2018-12-08T20:10:52.612Z,99466
2018-12-08T20:13:22.256Z,99453
2018-12-08T20:15:51.068Z,99435
2018-12-08T20:18:19.895Z,99427
2018-12-08T20:20:48.757Z,99418
2018-12-08T20:23:18.207Z,99413
2018-12-08T20:25:47.065Z,99415
2018-12-08T20:28:16.656Z,99424
2018-12-08T20:30:45.562Z,99409
2018-12-08T20:33:14.362Z,99395
2018-12-08T20:35:43.983Z,99393
2018-12-08T20:38:12.847Z,99399
2018-12-08T20:40:41.685Z,99389
2018-12-08T20:43:10.548Z,99386
2018-12-08T20:45:39.397Z,99377
2018-12-08T20:48:08.249Z,99375
2018-12-08T20:50:37.095Z,99352
2018-12-08T20:53:06.676Z,99334
2018-12-08T20:55:35.522Z,99330
2018-12-08T20:58:04.360Z,99322
2018-12-08T21:00:33.208Z,99322
2018-12-08T21:03:02.072Z,99320
2018-12-08T21:05:30.911Z,99312
2018-12-08T21:07:59.766Z,99307
2018-12-08T21:10:28.603Z,99300
2018-12-08T21:12:57.432Z,99280
2018-12-08T21:15:26.331Z,99275
2018-12-08T21:17:55.169Z,99266
2018-12-08T21:20:24.063Z,99260
2018-12-08T21:22:52.903Z,99259
2018-12-08T21:25:21.814Z,99250
2018-12-08T21:27:50.654Z,99214
2018-12-08T21:30:20.234Z,99209
2018-12-08T21:32:49.093Z,99231
2018-12-08T21:35:17.926Z,99194
2018-12-08T21:37:46.771Z,99185
2018-12-08T21:40:16.430Z,99193
2018-12-08T21:42:45.282Z,99181
2018-12-08T21:45:14.137Z,99185
2018-12-08T21:47:42.989Z,99179
2018-12-08T21:50:11.851Z,99182
2018-12-08T21:52:40.691Z,99159
2018-12-08T21:55:09.522Z,99162
2018-12-08T21:57:38.386Z,99149
2018-12-08T22:00:07.180Z,99145
2018-12-08T22:02:36.023Z,99129
2018-12-08T22:05:04.934Z,99119
2018-12-08T22:07:33.741Z,99118
2018-12-08T22:10:02.593Z,99102
2018-12-08T22:12:32.238Z,99105
2018-12-08T22:15:01.094Z,99096
2018-12-08T22:17:29.895Z,99070
2018-12-08T22:19:59.485Z,99068
2018-12-08T22:22:29.064Z,99071
2018-12-08T22:24:57.909Z,99051
2018-12-08T22:27:27.492Z,99050
2018-12-08T22:29:56.322Z,99049
2018-12-08T22:32:25.172Z,99042
2018-12-08T22:34:54.759Z,99029
2018-12-08T22:37:23.599Z,99058
2018-12-08T22:39:52.482Z,99035
2018-12-08T22:42:21.290Z,99017
2018-12-08T22:44:50.137Z,99007
2018-12-08T22:47:19.718Z,98990
2018-12-08T22:49:48.551Z,98987
2018-12-08T22:52:17.383Z,98987
2018-12-08T22:54:46.249Z,98980
2018-12-08T22:57:15.121Z,98983
2018-12-08T22:59:43.943Z,98966
2018-12-08T23:02:12.775Z,98998
2018-12-08T23:04:41.625Z,98980
2018-12-08T23:07:10.468Z,98988
2018-12-08T23:09:40.035Z,98988
2018-12-08T23:12:08.878Z,98975
2018-12-08T23:14:37.720Z,98973
2018-12-08T23:17:06.564Z,98979
2018-12-08T23:19:35.389Z,98979
2018-12-08T23:22:04.215Z,98975
2018-12-08T23:24:33.790Z,98971
2018-12-08T23:27:02.632Z,98959
2018-12-08T23:29:31.453Z,98952
2018-12-08T23:32:06.829Z,98957
2018-12-08T23:34:35.667Z,98952
2018-12-08T23:37:04.503Z,98935
2018-12-08T23:39:38.950Z,98968
2018-12-08T23:42:02.173Z,98965
2018-12-08T23:44:31.004Z,98958
2018-12-08T23:46:59.830Z,98956
2018-12-08T23:49:28.669Z,98959
2018-12-08T23:51:58.231Z,98940
2018-12-08T23:54:27.093Z,98936
2018-12-08T23:56:55.900Z,98922
2018-12-08T23:59:24.745Z,98940
